sensor_id;sensor_type;location;lat;lon;timestamp;pressure;altitude;pressure_sealevel;temperature;humidity
75312;BME280;63906;55.686;37.532;2022-12-08T00:03:20;100006.00;;;-7.95;71.64
75312;BME280;63906;55.686;37.532;2022-12-08T00:08:20;100023.91;;;-7.75;71.11
75312;BME280;63906;55.686;37.532;2022-12-08T00:13:40;100023.91;;;-7.75;70.82
75312;BME280;63906;55.686;37.532;2022-12-08T00:18:40;99999.81;;;-7.90;70.88
75312;BME280;63906;55.686;37.532;2022-12-08T00:23:41;99991.94;;;-7.65;70.51
75312;BME280;63906;55.686;37.532;2022-12-08T00:28:41;100009.72;;;-7.62;70.47
75312;BME280;63906;55.686;37.532;2022-12-08T00:33:42;100003.31;;;-7.51;69.94
75312;BME280;63906;55.686;37.532;2022-12-08T00:38:43;99997.13;;;-7.66;70.39
75312;BME280;63906;55.686;37.532;2022-12-08T00:43:44;100004.72;;;-7.85;71.14
75312;BME280;63906;55.686;37.532;2022-12-08T00:48:44;99971.00;;;-7.73;69.89
75312;BME280;63906;55.686;37.532;2022-12-08T00:53:45;99975.59;;;-7.61;69.69
75312;BME280;63906;55.686;37.532;2022-12-08T00:58:45;99946.13;;;-7.88;69.48
75312;BME280;63906;55.686;37.532;2022-12-08T01:03:46;99985.25;;;-7.67;69.75
75312;BME280;63906;55.686;37.532;2022-12-08T01:08:46;99978.66;;;-7.73;69.54
75312;BME280;63906;55.686;37.532;2022-12-08T01:13:47;99997.16;;;-7.47;69.26
75312;BME280;63906;55.686;37.532;2022-12-08T01:18:48;100007.94;;;-7.80;69.91
75312;BME280;63906;55.686;37.532;2022-12-08T01:23:49;99987.91;;;-7.70;69.83
75312;BME280;63906;55.686;37.532;2022-12-08T01:28:50;99984.94;;;-7.80;69.04
75312;BME280;63906;55.686;37.532;2022-12-08T01:33:50;99978.66;;;-7.73;69.36
75312;BME280;63906;55.686;37.532;2022-12-08T01:38:52;99976.28;;;-7.57;69.48
75312;BME280;63906;55.686;37.532;2022-12-08T01:43:58;100000.88;;;-7.95;70.12
75312;BME280;63906;55.686;37.532;2022-12-08T01:49:04;100015.19;;;-7.71;69.82
75312;BME280;63906;55.686;37.532;2022-12-08T01:54:06;100001.50;;;-7.89;70.47
75312;BME280;63906;55.686;37.532;2022-12-08T01:59:08;99992.97;;;-7.69;69.75
75312;BME280;63906;55.686;37.532;2022-12-08T02:04:10;99990.81;;;-7.98;70.22
75312;BME280;63906;55.686;37.532;2022-12-08T02:09:11;99997.47;;;-7.94;70.23
75312;BME280;63906;55.686;37.532;2022-12-08T02:14:12;99996.63;;;-7.95;69.99
75312;BME280;63906;55.686;37.532;2022-12-08T02:45:51;99959.19;;;-7.96;70.14
75312;BME280;63906;55.686;37.532;2022-12-08T02:50:54;99967.53;;;-7.72;69.08
75312;BME280;63906;55.686;37.532;2022-12-08T03:06:28;99950.97;;;-7.82;69.39
75312;BME280;63906;55.686;37.532;2022-12-08T03:11:39;99943.94;;;-7.97;70.09
75312;BME280;63906;55.686;37.532;2022-12-08T03:16:46;99929.56;;;-8.20;70.04
75312;BME280;63906;55.686;37.532;2022-12-08T03:21:51;99906.28;;;-8.33;70.02
75312;BME280;63906;55.686;37.532;2022-12-08T03:26:59;99930.66;;;-7.85;69.13
75312;BME280;63906;55.686;37.532;2022-12-08T03:32:15;99921.59;;;-7.92;70.24
75312;BME280;63906;55.686;37.532;2022-12-08T03:37:20;99913.94;;;-7.92;69.43
75312;BME280;63906;55.686;37.532;2022-12-08T03:42:20;99910.63;;;-8.15;70.75
75312;BME280;63906;55.686;37.532;2022-12-08T03:47:21;99914.03;;;-7.75;70.18
75312;BME280;63906;55.686;37.532;2022-12-08T03:52:21;99909.78;;;-7.95;71.21
75312;BME280;63906;55.686;37.532;2022-12-08T03:57:22;99887.75;;;-7.97;71.22
75312;BME280;63906;55.686;37.532;2022-12-08T04:02:22;99896.59;;;-7.86;71.90
75312;BME280;63906;55.686;37.532;2022-12-08T04:07:23;99889.88;;;-8.07;72.57
75312;BME280;63906;55.686;37.532;2022-12-08T04:12:23;99884.31;;;-8.35;74.44
75312;BME280;63906;55.686;37.532;2022-12-08T04:17:24;99882.53;;;-8.15;74.66
75312;BME280;63906;55.686;37.532;2022-12-08T04:22:24;99871.31;;;-8.31;74.48
75312;BME280;63906;55.686;37.532;2022-12-08T04:27:25;99920.91;;;-8.16;75.56
75312;BME280;63906;55.686;37.532;2022-12-08T04:32:25;99895.88;;;-8.28;76.38
75312;BME280;63906;55.686;37.532;2022-12-08T04:37:27;99865.44;;;-8.33;76.40
75312;BME280;63906;55.686;37.532;2022-12-08T04:42:27;99899.91;;;-8.23;77.52
75312;BME280;63906;55.686;37.532;2022-12-08T04:47:28;99901.44;;;-8.19;77.81
75312;BME280;63906;55.686;37.532;2022-12-08T04:52:28;99898.81;;;-8.36;77.83
75312;BME280;63906;55.686;37.532;2022-12-08T04:57:29;99893.56;;;-8.14;77.63
75312;BME280;63906;55.686;37.532;2022-12-08T05:02:30;99910.13;;;-8.23;78.37
75312;BME280;63906;55.686;37.532;2022-12-08T05:07:32;99901.88;;;-8.29;78.14
75312;BME280;63906;55.686;37.532;2022-12-08T05:12:32;99883.19;;;-8.30;78.46
75312;BME280;63906;55.686;37.532;2022-12-08T05:17:33;99877.06;;;-8.26;78.96
75312;BME280;63906;55.686;37.532;2022-12-08T05:22:33;99901.91;;;-7.90;78.13
75312;BME280;63906;55.686;37.532;2022-12-08T05:27:34;99906.56;;;-8.19;78.07
75312;BME280;63906;55.686;37.532;2022-12-08T05:32:35;99885.09;;;-7.75;77.61
75312;BME280;63906;55.686;37.532;2022-12-08T05:37:35;99867.88;;;-8.30;76.95
75312;BME280;63906;55.686;37.532;2022-12-08T05:42:36;99887.25;;;-8.05;76.98
75312;BME280;63906;55.686;37.532;2022-12-08T05:47:36;99859.25;;;-8.27;77.47
75312;BME280;63906;55.686;37.532;2022-12-08T05:52:37;99896.69;;;-8.07;77.75
75312;BME280;63906;55.686;37.532;2022-12-08T05:57:37;99892.75;;;-8.15;77.09
75312;BME280;63906;55.686;37.532;2022-12-08T06:02:38;99873.22;;;-8.16;78.05
75312;BME280;63906;55.686;37.532;2022-12-08T06:07:38;99893.91;;;-8.22;77.41
75312;BME280;63906;55.686;37.532;2022-12-08T06:12:39;99869.28;;;-8.23;77.74
75312;BME280;63906;55.686;37.532;2022-12-08T06:17:39;99879.63;;;-8.26;77.90
75312;BME280;63906;55.686;37.532;2022-12-08T06:22:40;99818.41;;;-8.66;77.47
75312;BME280;63906;55.686;37.532;2022-12-08T06:27:41;99879.94;;;-8.13;78.37
75312;BME280;63906;55.686;37.532;2022-12-08T06:32:41;99855.59;;;-8.22;77.05
75312;BME280;63906;55.686;37.532;2022-12-08T06:37:42;99877.03;;;-8.05;76.49
75312;BME280;63906;55.686;37.532;2022-12-08T06:42:43;99877.16;;;-7.69;77.33
75312;BME280;63906;55.686;37.532;2022-12-08T06:47:44;99839.06;;;-8.13;76.60
75312;BME280;63906;55.686;37.532;2022-12-08T06:52:44;99881.31;;;-8.06;76.99
75312;BME280;63906;55.686;37.532;2022-12-08T06:57:45;99878.16;;;-7.92;77.56
75312;BME280;63906;55.686;37.532;2022-12-08T07:02:45;99875.97;;;-7.81;76.98
75312;BME280;63906;55.686;37.532;2022-12-08T07:07:46;99862.56;;;-7.86;75.55
75312;BME280;63906;55.686;37.532;2022-12-08T07:12:46;99889.66;;;-7.82;75.97
75312;BME280;63906;55.686;37.532;2022-12-08T07:17:47;99883.72;;;-7.64;76.17
75312;BME280;63906;55.686;37.532;2022-12-08T07:22:49;99870.09;;;-7.83;75.19
75312;BME280;63906;55.686;37.532;2022-12-08T07:27:50;99844.97;;;-7.92;75.14
75312;BME280;63906;55.686;37.532;2022-12-08T07:32:51;99880.66;;;-7.72;76.91
75312;BME280;63906;55.686;37.532;2022-12-08T07:37:52;99878.63;;;-7.64;76.30
75312;BME280;63906;55.686;37.532;2022-12-08T07:42:52;99801.38;;;-8.08;75.03
75312;BME280;63906;55.686;37.532;2022-12-08T07:47:53;99860.09;;;-7.69;75.18
75312;BME280;63906;55.686;37.532;2022-12-08T07:52:53;99869.69;;;-7.36;73.79
75312;BME280;63906;55.686;37.532;2022-12-08T07:57:54;99854.72;;;-7.63;73.49
75312;BME280;63906;55.686;37.532;2022-12-08T08:02:54;99870.72;;;-7.40;73.52
75312;BME280;63906;55.686;37.532;2022-12-08T08:07:55;99836.72;;;-7.42;73.24
75312;BME280;63906;55.686;37.532;2022-12-08T08:12:59;99836.16;;;-7.30;72.68
75312;BME280;63906;55.686;37.532;2022-12-08T08:17:59;99854.09;;;-7.13;71.99
75312;BME280;63906;55.686;37.532;2022-12-08T08:23:00;99831.94;;;-6.95;70.59
75312;BME280;63906;55.686;37.532;2022-12-08T08:28:00;99818.16;;;-6.75;70.22
75312;BME280;63906;55.686;37.532;2022-12-08T08:33:01;99838.47;;;-7.07;71.10
75312;BME280;63906;55.686;37.532;2022-12-08T08:38:01;99839.44;;;-6.92;72.03
75312;BME280;63906;55.686;37.532;2022-12-08T08:43:04;99854.72;;;-7.08;71.82
75312;BME280;63906;55.686;37.532;2022-12-08T08:48:04;99835.94;;;-6.89;70.32
75312;BME280;63906;55.686;37.532;2022-12-08T08:53:05;99838.50;;;-6.89;71.54
75312;BME280;63906;55.686;37.532;2022-12-08T08:58:05;99838.91;;;-6.98;71.98
75312;BME280;63906;55.686;37.532;2022-12-08T09:03:06;99849.44;;;-7.05;71.65
75312;BME280;63906;55.686;37.532;2022-12-08T09:08:07;99858.94;;;-7.07;72.00
75312;BME280;63906;55.686;37.532;2022-12-08T09:13:07;99843.59;;;-6.89;72.69
75312;BME280;63906;55.686;37.532;2022-12-08T09:18:08;99854.50;;;-7.22;72.39
75312;BME280;63906;55.686;37.532;2022-12-08T09:23:08;99816.59;;;-7.31;72.03
75312;BME280;63906;55.686;37.532;2022-12-08T09:28:09;99818.16;;;-6.75;72.07
75312;BME280;63906;55.686;37.532;2022-12-08T09:33:09;99821.16;;;-6.84;70.73
75312;BME280;63906;55.686;37.532;2022-12-08T09:38:10;99817.25;;;-6.57;73.05
75312;BME280;63906;55.686;37.532;2022-12-08T09:48:28;99826.75;;;-6.76;72.38
75312;BME280;63906;55.686;37.532;2022-12-08T09:53:45;99803.56;;;-7.08;71.29
75312;BME280;63906;55.686;37.532;2022-12-08T09:58:55;99807.22;;;-6.44;75.24
75312;BME280;63906;55.686;37.532;2022-12-08T10:03:56;99823.72;;;-7.01;73.24
75312;BME280;63906;55.686;37.532;2022-12-08T10:14:41;99825.81;;;-6.92;75.79
75312;BME280;63906;55.686;37.532;2022-12-08T10:19:42;99830.66;;;-6.86;76.28
75312;BME280;63906;55.686;37.532;2022-12-08T10:24:59;99830.00;;;-7.09;76.71
75312;BME280;63906;55.686;37.532;2022-12-08T10:29:59;99801.66;;;-7.04;76.25
75312;BME280;63906;55.686;37.532;2022-12-08T10:35:14;99828.59;;;-6.97;75.18
75312;BME280;63906;55.686;37.532;2022-12-08T10:40:16;99800.84;;;-7.05;75.01
75312;BME280;63906;55.686;37.532;2022-12-08T10:50:22;99826.44;;;-6.87;73.68
75312;BME280;63906;55.686;37.532;2022-12-08T10:55:24;99814.75;;;-6.93;73.83
75312;BME280;63906;55.686;37.532;2022-12-08T11:00:26;99828.78;;;-6.83;73.22
75312;BME280;63906;55.686;37.532;2022-12-08T11:05:34;99808.38;;;-6.34;76.26
75312;BME280;63906;55.686;37.532;2022-12-08T11:10:42;99814.88;;;-6.11;77.24
75312;BME280;63906;55.686;37.532;2022-12-08T11:15:44;99795.34;;;-6.29;75.70
75312;BME280;63906;55.686;37.532;2022-12-08T11:20:45;99789.47;;;-6.64;74.10
75312;BME280;63906;55.686;37.532;2022-12-08T11:25:47;99817.75;;;-6.50;73.64
75312;BME280;63906;55.686;37.532;2022-12-08T11:30:56;99795.72;;;-6.70;72.98
75312;BME280;63906;55.686;37.532;2022-12-08T11:36:06;99809.75;;;-6.27;74.52
75312;BME280;63906;55.686;37.532;2022-12-08T11:41:12;99800.03;;;-6.70;73.63
75312;BME280;63906;55.686;37.532;2022-12-08T11:46:20;99794.31;;;-6.42;75.27
75312;BME280;63906;55.686;37.532;2022-12-08T11:51:34;99789.41;;;-6.80;74.57
75312;BME280;63906;55.686;37.532;2022-12-08T11:56:48;99784.25;;;-6.45;75.54
75312;BME280;63906;55.686;37.532;2022-12-08T12:01:50;99798.25;;;-6.53;74.98
75312;BME280;63906;55.686;37.532;2022-12-08T12:22:47;99824.50;;;-5.99;75.84
75312;BME280;63906;55.686;37.532;2022-12-08T12:27:50;99806.28;;;-6.26;74.06
75312;BME280;63906;55.686;37.532;2022-12-08T12:37:56;99835.34;;;-6.27;73.24
75312;BME280;63906;55.686;37.532;2022-12-08T12:53:01;99852.78;;;-6.33;73.47
75312;BME280;63906;55.686;37.532;2022-12-08T12:58:12;99798.84;;;-6.65;73.73
75312;BME280;63906;55.686;37.532;2022-12-08T13:03:17;99828.94;;;-6.35;73.67
75312;BME280;63906;55.686;37.532;2022-12-08T13:08:21;99826.25;;;-6.32;73.04
75312;BME280;63906;55.686;37.532;2022-12-08T13:13:22;99816.44;;;-6.24;74.88
75312;BME280;63906;55.686;37.532;2022-12-08T13:18:38;99835.91;;;-6.37;73.44
75312;BME280;63906;55.686;37.532;2022-12-08T13:34:05;99812.53;;;-6.31;72.97
75312;BME280;63906;55.686;37.532;2022-12-08T13:39:14;99839.78;;;-6.13;72.63
75312;BME280;63906;55.686;37.532;2022-12-08T13:44:27;99844.50;;;-6.05;73.48
75312;BME280;63906;55.686;37.532;2022-12-08T13:49:37;99816.53;;;-6.10;73.34
75312;BME280;63906;55.686;37.532;2022-12-08T13:54:41;99832.88;;;-5.95;73.52
75312;BME280;63906;55.686;37.532;2022-12-08T13:59:44;99829.63;;;-5.99;74.11
75312;BME280;63906;55.686;37.532;2022-12-08T14:04:45;99808.44;;;-6.18;73.42
75312;BME280;63906;55.686;37.532;2022-12-08T14:09:49;99830.13;;;-6.08;73.28
75312;BME280;63906;55.686;37.532;2022-12-08T14:14:52;99829.84;;;-6.03;73.18
75312;BME280;63906;55.686;37.532;2022-12-08T14:25:00;99844.72;;;-6.10;72.40
75312;BME280;63906;55.686;37.532;2022-12-08T14:30:05;99877.59;;;-5.69;72.73
75312;BME280;63906;55.686;37.532;2022-12-08T14:40:43;99885.56;;;-5.58;72.53
75312;BME280;63906;55.686;37.532;2022-12-08T14:56:06;99882.56;;;-5.66;73.29
75312;BME280;63906;55.686;37.532;2022-12-08T15:01:11;99907.53;;;-5.54;72.72
75312;BME280;63906;55.686;37.532;2022-12-08T15:06:13;99859.88;;;-5.89;73.43
75312;BME280;63906;55.686;37.532;2022-12-08T15:16:37;99901.41;;;-5.83;73.12
75312;BME280;63906;55.686;37.532;2022-12-08T15:21:38;99914.00;;;-5.47;73.13
75312;BME280;63906;55.686;37.532;2022-12-08T15:26:47;99897.28;;;-5.54;72.43
75312;BME280;63906;55.686;37.532;2022-12-08T15:31:49;99908.31;;;-5.52;73.37
75312;BME280;63906;55.686;37.532;2022-12-08T15:36:53;99906.41;;;-5.32;74.24
75312;BME280;63906;55.686;37.532;2022-12-08T15:41:53;99935.31;;;-5.13;74.49
75312;BME280;63906;55.686;37.532;2022-12-08T15:46:54;99946.41;;;-4.97;74.86
75312;BME280;63906;55.686;37.532;2022-12-08T15:51:55;99929.25;;;-5.12;73.38
75312;BME280;63906;55.686;37.532;2022-12-08T15:56:56;99941.69;;;-5.20;72.71
75312;BME280;63906;55.686;37.532;2022-12-08T16:01:57;99920.47;;;-5.24;72.74
75312;BME280;63906;55.686;37.532;2022-12-08T16:06:58;99941.91;;;-4.93;72.58
75312;BME280;63906;55.686;37.532;2022-12-08T16:11:58;99944.97;;;-4.87;72.63
75312;BME280;63906;55.686;37.532;2022-12-08T16:17:18;99916.16;;;-4.92;73.71
75312;BME280;63906;55.686;37.532;2022-12-08T16:22:30;99928.91;;;-4.74;76.26
75312;BME280;63906;55.686;37.532;2022-12-08T16:27:32;99948.94;;;-4.81;73.80
75312;BME280;63906;55.686;37.532;2022-12-08T16:32:34;99928.69;;;-5.17;73.65
75312;BME280;63906;55.686;37.532;2022-12-08T16:37:34;99919.66;;;-5.08;74.16
75312;BME280;63906;55.686;37.532;2022-12-08T16:42:35;99952.09;;;-4.76;74.73
75312;BME280;63906;55.686;37.532;2022-12-08T16:47:56;99947.25;;;-4.66;76.03
75312;BME280;63906;55.686;37.532;2022-12-08T16:53:04;99927.44;;;-5.10;75.69
75312;BME280;63906;55.686;37.532;2022-12-08T16:58:05;99932.38;;;-4.91;75.13
75312;BME280;63906;55.686;37.532;2022-12-08T17:03:06;99938.38;;;-4.91;74.74
75312;BME280;63906;55.686;37.532;2022-12-08T17:08:07;99936.03;;;-4.79;74.36
75312;BME280;63906;55.686;37.532;2022-12-08T17:13:08;99939.78;;;-4.55;76.50
75312;BME280;63906;55.686;37.532;2022-12-08T17:18:09;99951.38;;;-4.48;76.46
75312;BME280;63906;55.686;37.532;2022-12-08T17:23:10;99929.72;;;-4.58;75.65
75312;BME280;63906;55.686;37.532;2022-12-08T17:28:10;99948.59;;;-4.59;75.66
75312;BME280;63906;55.686;37.532;2022-12-08T17:33:11;99928.13;;;-4.61;76.35
75312;BME280;63906;55.686;37.532;2022-12-08T17:38:11;99959.50;;;-4.40;76.70
75312;BME280;63906;55.686;37.532;2022-12-08T17:43:13;99954.16;;;-4.67;75.57
75312;BME280;63906;55.686;37.532;2022-12-08T17:48:14;99956.56;;;-4.64;76.59
75312;BME280;63906;55.686;37.532;2022-12-08T17:53:14;99970.47;;;-4.52;76.52
75312;BME280;63906;55.686;37.532;2022-12-08T17:58:15;99913.84;;;-4.80;76.54
75312;BME280;63906;55.686;37.532;2022-12-08T18:03:16;99968.63;;;-4.50;76.09
75312;BME280;63906;55.686;37.532;2022-12-08T18:08:17;99940.34;;;-4.80;76.07
75312;BME280;63906;55.686;37.532;2022-12-08T18:13:18;99934.47;;;-4.82;77.05
75312;BME280;63906;55.686;37.532;2022-12-08T18:18:18;99974.47;;;-4.78;76.72
75312;BME280;63906;55.686;37.532;2022-12-08T18:23:19;99979.72;;;-4.34;77.56
75312;BME280;63906;55.686;37.532;2022-12-08T18:28:20;99946.38;;;-4.81;77.19
75312;BME280;63906;55.686;37.532;2022-12-08T18:33:20;99973.75;;;-4.50;77.02
75312;BME280;63906;55.686;37.532;2022-12-08T18:38:21;99965.38;;;-4.53;76.00
75312;BME280;63906;55.686;37.532;2022-12-08T18:43:21;99986.41;;;-4.31;77.40
75312;BME280;63906;55.686;37.532;2022-12-08T18:48:22;99954.91;;;-4.80;76.47
75312;BME280;63906;55.686;37.532;2022-12-08T18:53:22;99951.09;;;-4.73;76.95
75312;BME280;63906;55.686;37.532;2022-12-08T18:58:23;99969.69;;;-4.38;76.99
75312;BME280;63906;55.686;37.532;2022-12-08T19:03:23;99988.63;;;-4.25;77.28
75312;BME280;63906;55.686;37.532;2022-12-08T19:08:24;99968.59;;;-4.34;76.71
75312;BME280;63906;55.686;37.532;2022-12-08T19:13:24;99975.03;;;-4.57;77.04
75312;BME280;63906;55.686;37.532;2022-12-08T19:18:26;99979.00;;;-4.67;77.25
75312;BME280;63906;55.686;37.532;2022-12-08T19:23:26;99994.88;;;-4.45;77.23
75312;BME280;63906;55.686;37.532;2022-12-08T19:28:28;99979.00;;;-4.51;77.50
75312;BME280;63906;55.686;37.532;2022-12-08T19:33:28;99966.09;;;-4.36;77.42
75312;BME280;63906;55.686;37.532;2022-12-08T19:38:29;99995.25;;;-4.21;76.58
75312;BME280;63906;55.686;37.532;2022-12-08T19:43:29;99970.47;;;-4.52;77.32
75312;BME280;63906;55.686;37.532;2022-12-08T19:48:33;99996.81;;;-4.18;77.23
75312;BME280;63906;55.686;37.532;2022-12-08T19:53:33;99990.63;;;-4.30;77.27
75312;BME280;63906;55.686;37.532;2022-12-08T19:58:34;99977.34;;;-4.68;77.86
75312;BME280;63906;55.686;37.532;2022-12-08T20:03:35;99990.13;;;-4.37;77.39
75312;BME280;63906;55.686;37.532;2022-12-08T20:08:36;99986.50;;;-4.32;77.77
75312;BME280;63906;55.686;37.532;2022-12-08T20:13:36;99992.59;;;-4.19;77.32
75312;BME280;63906;55.686;37.532;2022-12-08T20:18:42;99977.63;;;-4.27;77.01
75312;BME280;63906;55.686;37.532;2022-12-08T20:23:43;100007.53;;;-4.26;77.17
75312;BME280;63906;55.686;37.532;2022-12-08T20:28:44;100009.41;;;-4.14;77.24
75312;BME280;63906;55.686;37.532;2022-12-08T20:33:45;100001.81;;;-4.31;77.93
75312;BME280;63906;55.686;37.532;2022-12-08T20:38:47;99999.25;;;-4.31;77.56
75312;BME280;63906;55.686;37.532;2022-12-08T20:43:48;99985.94;;;-4.08;76.58
75312;BME280;63906;55.686;37.532;2022-12-08T20:48:49;99966.53;;;-4.13;76.33
75312;BME280;63906;55.686;37.532;2022-12-08T20:53:49;99983.41;;;-4.23;76.98
75312;BME280;63906;55.686;37.532;2022-12-08T20:58:52;99990.53;;;-3.98;76.93
75312;BME280;63906;55.686;37.532;2022-12-08T21:03:52;99993.31;;;-3.87;77.65
75312;BME280;63906;55.686;37.532;2022-12-08T21:08:53;99988.59;;;-4.39;77.80
75312;BME280;63906;55.686;37.532;2022-12-08T21:13:54;99989.88;;;-4.32;77.71
75312;BME280;63906;55.686;37.532;2022-12-08T21:18:54;99961.63;;;-4.32;77.27
75312;BME280;63906;55.686;37.532;2022-12-08T21:23:55;99992.16;;;-4.12;77.03
75312;BME280;63906;55.686;37.532;2022-12-08T21:28:56;99972.63;;;-4.00;76.76
75312;BME280;63906;55.686;37.532;2022-12-08T21:34:00;99980.41;;;-3.71;77.19
75312;BME280;63906;55.686;37.532;2022-12-08T21:39:01;99997.75;;;-3.75;77.07
75312;BME280;63906;55.686;37.532;2022-12-08T21:44:02;99990.84;;;-3.74;76.94
75312;BME280;63906;55.686;37.532;2022-12-08T21:49:03;99990.66;;;-3.86;77.01
75312;BME280;63906;55.686;37.532;2022-12-08T21:54:04;99987.19;;;-3.85;76.81
75312;BME280;63906;55.686;37.532;2022-12-08T21:59:04;99994.69;;;-3.82;76.42
75312;BME280;63906;55.686;37.532;2022-12-08T22:04:05;100017.97;;;-3.69;77.02
75312;BME280;63906;55.686;37.532;2022-12-08T22:09:05;100005.09;;;-3.55;76.49
75312;BME280;63906;55.686;37.532;2022-12-08T22:14:09;100010.53;;;-3.59;76.64
75312;BME280;63906;55.686;37.532;2022-12-08T22:19:10;99987.38;;;-3.45;77.01
75312;BME280;63906;55.686;37.532;2022-12-08T22:24:11;100018.63;;;-3.65;77.13
75312;BME280;63906;55.686;37.532;2022-12-08T22:29:11;100011.28;;;-3.57;76.85
75312;BME280;63906;55.686;37.532;2022-12-08T22:34:12;100008.34;;;-3.37;77.08
75312;BME280;63906;55.686;37.532;2022-12-08T22:39:14;99999.75;;;-3.80;77.48
75312;BME280;63906;55.686;37.532;2022-12-08T22:44:14;100007.31;;;-3.63;77.19
75312;BME280;63906;55.686;37.532;2022-12-08T22:49:15;100011.47;;;-3.60;77.03
75312;BME280;63906;55.686;37.532;2022-12-08T22:54:16;100002.47;;;-3.53;76.85
75312;BME280;63906;55.686;37.532;2022-12-08T22:59:16;100015.50;;;-3.42;77.09
75312;BME280;63906;55.686;37.532;2022-12-08T23:04:17;100030.66;;;-3.37;77.59
75312;BME280;63906;55.686;37.532;2022-12-08T23:09:17;100024.72;;;-3.09;77.56
75312;BME280;63906;55.686;37.532;2022-12-08T23:14:18;100004.84;;;-3.36;76.70
75312;BME280;63906;55.686;37.532;2022-12-08T23:19:18;100015.69;;;-3.59;76.47
75312;BME280;63906;55.686;37.532;2022-12-08T23:24:19;100027.19;;;-3.22;77.35
75312;BME280;63906;55.686;37.532;2022-12-08T23:29:20;100013.31;;;-3.34;76.25
75312;BME280;63906;55.686;37.532;2022-12-08T23:34:20;100011.66;;;-3.20;77.77
75312;BME280;63906;55.686;37.532;2022-12-08T23:39:21;100011.84;;;-3.09;77.77
75312;BME280;63906;55.686;37.532;2022-12-08T23:44:23;100014.59;;;-3.12;78.40
75312;BME280;63906;55.686;37.532;2022-12-08T23:49:24;100036.56;;;-3.35;76.62
75312;BME280;63906;55.686;37.532;2022-12-08T23:54:25;100029.38;;;-3.30;77.98
75312;BME280;63906;55.686;37.532;2022-12-08T23:59:25;100029.84;;;-3.23;77.33
